Ringmer, United Kingdom
Current Conditions -  °F | °C
As of 7:50 PM on Friday 28 Nov 2014 (Local Time) from EGKA Reporting Station
Light Rain Light Rain  
Wind Chill: 12°   Ceiling: Unl
Heat Index: 12°   Visibility: 6mi
Dew Point: 10°   Wind: 12mph
Humidity: 88%   Direction: 70°ENE
Pressure: 29.65"   Gusts: NA
Location:  50.89°N, 0.06°E
Report Text: EGKA 281950Z 07010KT 9999 -RA SCT040 12/10 Q1004
Loading
Personal Weather Stations






























Interactive Weather Map New forecast layout! Learn more

10-Day Weather Forecast

Advertisements
Track Severe Weather on mobile